ARG1674 SABE-SAZS
Flight info
| Callsign | ARG1674 |
|---|---|
| Flight time | 1h 56m |
| Altitude | 38000 |
| Route | PAL9 TORUL UT654 ORERA ORERA2Q |
| Aircraft | B737/M-SDE2E3FGHIRWXY/LB1 |
Departure
| Time | 2026-04-25 13:31 |
|---|---|
| Airport | Aeroparque Jorge Newbery (SABE) |
Arrival
| Time | 2026-04-25 15:27 |
|---|---|
| Airport | Teniente Luis Candelaria International Airport (SAZS) |
| Time | Latitude | Longitude | Altitude | Speed | Heading |
|---|---|---|---|---|---|
| 2026-04-25 12:38 | -34.55721 | -58.41403 | 27 ft | 0 kts | 29° |
| 2026-04-25 13:19 | -34.55733 | -58.41410 | 27 ft | 2 kts | 11° |
| 2026-04-25 13:19 | -34.55738 | -58.41412 | 27 ft | 2 kts | 5° |
| 2026-04-25 13:20 | -34.55762 | -58.41407 | 27 ft | 2 kts | 333° |
| 2026-04-25 13:20 | -34.55774 | -58.41397 | 27 ft | 2 kts | 314° |
| 2026-04-25 13:20 | -34.55783 | -58.41382 | 27 ft | 2 kts | 295° |
| 2026-04-25 13:20 | -34.55786 | -58.41374 | 27 ft | 0 kts | 297° |
| 2026-04-25 13:24 | -34.55781 | -58.41386 | 27 ft | 3 kts | 297° |
| 2026-04-25 13:25 | -34.55763 | -58.41424 | 27 ft | 5 kts | 302° |
| 2026-04-25 13:25 | -34.55741 | -58.41462 | 27 ft | 5 kts | 300° |
| 2026-04-25 13:25 | -34.55724 | -58.41505 | 27 ft | 6 kts | 284° |
| 2026-04-25 13:25 | -34.55737 | -58.41555 | 27 ft | 6 kts | 223° |
| 2026-04-25 13:26 | -34.55772 | -58.41595 | 27 ft | 7 kts | 242° |
| 2026-04-25 13:26 | -34.55771 | -58.41662 | 27 ft | 9 kts | 291° |
| 2026-04-25 13:26 | -34.55741 | -58.41734 | 27 ft | 9 kts | 297° |
| 2026-04-25 13:26 | -34.55706 | -58.41804 | 27 ft | 9 kts | 302° |
| 2026-04-25 13:27 | -34.55671 | -58.41868 | 27 ft | 9 kts | 303° |
| 2026-04-25 13:27 | -34.55633 | -58.41934 | 27 ft | 9 kts | 305° |
| 2026-04-25 13:27 | -34.55595 | -58.42002 | 27 ft | 9 kts | 304° |
| 2026-04-25 13:27 | -34.55556 | -58.42070 | 27 ft | 10 kts | 306° |
| 2026-04-25 13:28 | -34.55513 | -58.42139 | 27 ft | 10 kts | 308° |
| 2026-04-25 13:28 | -34.55499 | -58.42162 | 27 ft | 10 kts | 307° |
| 2026-04-25 13:28 | -34.55429 | -58.42272 | 27 ft | 8 kts | 307° |
| 2026-04-25 13:28 | -34.55396 | -58.42326 | 27 ft | 5 kts | 306° |
| 2026-04-25 13:29 | -34.55376 | -58.42367 | 27 ft | 6 kts | 294° |
| 2026-04-25 13:29 | -34.55360 | -58.42440 | 27 ft | 10 kts | 277° |
| 2026-04-25 13:29 | -34.55375 | -58.42494 | 27 ft | 6 kts | 221° |
| 2026-04-25 13:30 | -34.55464 | -58.42397 | 27 ft | 44 kts | 124° |
| 2026-04-25 13:30 | -34.55786 | -58.41823 | 27 ft | 123 kts | 124° |
| 2026-04-25 13:30 | -34.56375 | -58.40768 | 318 ft | 163 kts | 124° |
| 2026-04-25 13:31 | -34.57492 | -58.38278 | 1713 ft | 185 kts | 95° |
| 2026-04-25 13:31 | -34.57186 | -58.36864 | 2051 ft | 209 kts | 54° |
| 2026-04-25 13:31 | -34.56134 | -58.35524 | 2571 ft | 233 kts | 46° |
| 2026-04-25 13:31 | -34.55230 | -58.33839 | 3295 ft | 252 kts | 64° |
| 2026-04-25 13:32 | -34.54465 | -58.31860 | 4154 ft | 266 kts | 63° |
| 2026-04-25 13:32 | -34.53619 | -58.29936 | 5125 ft | 272 kts | 54° |
| 2026-04-25 13:32 | -34.52273 | -58.28410 | 6083 ft | 277 kts | 25° |
| 2026-04-25 13:32 | -34.50413 | -58.27958 | 7120 ft | 278 kts | 353° |
| 2026-04-25 13:33 | -34.48641 | -58.28802 | 8059 ft | 281 kts | 320° |
| 2026-04-25 13:33 | -34.47532 | -58.30694 | 9012 ft | 282 kts | 287° |
| 2026-04-25 13:33 | -34.47440 | -58.33033 | 9931 ft | 286 kts | 255° |
| 2026-04-25 13:33 | -34.47652 | -58.33785 | 10230 ft | 287 kts | 245° |
| 2026-04-25 13:34 | -34.50118 | -58.36607 | 11287 ft | 313 kts | 212° |
| 2026-04-25 13:34 | -34.51830 | -58.38226 | 12081 ft | 321 kts | 230° |
| 2026-04-25 13:34 | -34.52977 | -58.40538 | 13061 ft | 322 kts | 243° |
| 2026-04-25 13:34 | -34.54113 | -58.42890 | 14008 ft | 325 kts | 236° |
| 2026-04-25 13:35 | -34.55455 | -58.45052 | 14928 ft | 328 kts | 232° |
| 2026-04-25 13:35 | -34.56871 | -58.47213 | 15830 ft | 330 kts | 232° |
| 2026-04-25 13:35 | -34.58313 | -58.49393 | 16709 ft | 333 kts | 232° |
| 2026-04-25 13:35 | -34.59795 | -58.51600 | 17569 ft | 335 kts | 232° |
| 2026-04-25 13:36 | -34.61253 | -58.53749 | 18292 ft | 333 kts | 232° |
| 2026-04-25 13:36 | -34.62653 | -58.55808 | 18941 ft | 338 kts | 232° |
| 2026-04-25 13:36 | -34.64151 | -58.58008 | 19690 ft | 341 kts | 233° |
| 2026-04-25 13:36 | -34.65667 | -58.60229 | 20432 ft | 344 kts | 233° |
| 2026-04-25 13:37 | -34.67211 | -58.62492 | 21163 ft | 347 kts | 233° |
| 2026-04-25 13:37 | -34.68697 | -58.64672 | 21841 ft | 349 kts | 233° |
| 2026-04-25 13:37 | -34.70155 | -58.66811 | 22496 ft | 351 kts | 234° |
| 2026-04-25 13:37 | -34.71732 | -58.69124 | 23173 ft | 354 kts | 234° |
| 2026-04-25 13:38 | -34.73299 | -58.71425 | 23821 ft | 357 kts | 234° |
| 2026-04-25 13:38 | -34.74885 | -58.73756 | 24453 ft | 359 kts | 234° |
| 2026-04-25 13:38 | -34.76485 | -58.76108 | 25065 ft | 362 kts | 235° |
| 2026-04-25 13:38 | -34.78097 | -58.78478 | 25659 ft | 364 kts | 235° |
| 2026-04-25 13:39 | -34.79715 | -58.80860 | 26219 ft | 367 kts | 235° |
| 2026-04-25 13:39 | -34.81362 | -58.83287 | 26700 ft | 372 kts | 236° |
| 2026-04-25 13:39 | -34.82929 | -58.85598 | 27149 ft | 376 kts | 236° |
| 2026-04-25 13:39 | -34.84472 | -58.87873 | 27572 ft | 380 kts | 236° |
| 2026-04-25 13:40 | -34.86143 | -58.90340 | 28014 ft | 385 kts | 236° |
| 2026-04-25 13:40 | -34.87877 | -58.92902 | 28455 ft | 389 kts | 237° |
| 2026-04-25 13:40 | -34.89602 | -58.95452 | 28886 ft | 393 kts | 236° |
| 2026-04-25 13:40 | -34.91330 | -58.98008 | 29303 ft | 397 kts | 236° |
| 2026-04-25 13:41 | -34.93100 | -59.00628 | 29715 ft | 401 kts | 236° |
| 2026-04-25 13:41 | -34.94877 | -59.03258 | 30114 ft | 404 kts | 236° |
| 2026-04-25 13:41 | -34.96657 | -59.05898 | 30528 ft | 407 kts | 235° |
| 2026-04-25 13:41 | -34.98481 | -59.08602 | 30944 ft | 410 kts | 235° |
| 2026-04-25 13:42 | -35.00271 | -59.11259 | 31327 ft | 413 kts | 234° |
| 2026-04-25 13:42 | -35.02101 | -59.13979 | 31695 ft | 416 kts | 234° |
| 2026-04-25 13:42 | -35.03972 | -59.16759 | 32051 ft | 420 kts | 234° |
| 2026-04-25 13:42 | -35.05761 | -59.19422 | 32412 ft | 422 kts | 234° |
| 2026-04-25 13:43 | -35.07617 | -59.22185 | 32775 ft | 425 kts | 234° |
| 2026-04-25 13:43 | -35.09492 | -59.24974 | 33128 ft | 427 kts | 234° |
| 2026-04-25 13:43 | -35.11376 | -59.27776 | 33466 ft | 429 kts | 234° |
| 2026-04-25 13:43 | -35.13291 | -59.30636 | 33830 ft | 430 kts | 234° |
| 2026-04-25 13:44 | -35.15146 | -59.33409 | 34369 ft | 427 kts | 234° |
| 2026-04-25 13:44 | -35.16871 | -59.35989 | 34778 ft | 426 kts | 234° |
| 2026-04-25 13:44 | -35.18745 | -59.38794 | 35193 ft | 425 kts | 234° |
| 2026-04-25 13:44 | -35.20584 | -59.41548 | 35583 ft | 424 kts | 234° |
| 2026-04-25 13:45 | -35.22457 | -59.44355 | 35961 ft | 423 kts | 234° |
| 2026-04-25 13:45 | -35.24291 | -59.47107 | 36303 ft | 422 kts | 234° |
| 2026-04-25 13:45 | -35.26159 | -59.49912 | 36619 ft | 422 kts | 234° |
| 2026-04-25 13:45 | -35.28002 | -59.52680 | 36918 ft | 422 kts | 234° |
| 2026-04-25 13:46 | -35.29863 | -59.55478 | 37210 ft | 422 kts | 234° |
| 2026-04-25 13:46 | -35.31697 | -59.58239 | 37484 ft | 422 kts | 234° |
| 2026-04-25 13:46 | -35.33565 | -59.61052 | 37749 ft | 423 kts | 234° |
| 2026-04-25 13:46 | -35.35420 | -59.63848 | 38000 ft | 423 kts | 234° |
| 2026-04-25 13:47 | -35.37299 | -59.66683 | 38048 ft | 427 kts | 235° |
| 2026-04-25 13:47 | -35.41000 | -59.72269 | 38047 ft | 423 kts | 235° |
| 2026-04-25 13:48 | -35.44678 | -59.77833 | 38047 ft | 420 kts | 235° |
| 2026-04-25 13:48 | -35.48280 | -59.83290 | 38047 ft | 421 kts | 235° |
| 2026-04-25 13:49 | -35.51972 | -59.88893 | 38047 ft | 422 kts | 235° |
| 2026-04-25 13:49 | -35.55655 | -59.94490 | 38047 ft | 422 kts | 235° |
| 2026-04-25 13:50 | -35.59343 | -60.00104 | 38047 ft | 421 kts | 235° |
| 2026-04-25 13:50 | -35.62988 | -60.05662 | 38047 ft | 421 kts | 235° |
| 2026-04-25 13:51 | -35.66598 | -60.11176 | 38047 ft | 422 kts | 235° |
| 2026-04-25 13:51 | -35.70114 | -60.16554 | 38049 ft | 422 kts | 235° |
| 2026-04-25 13:52 | -35.73782 | -60.22172 | 38056 ft | 422 kts | 235° |
| 2026-04-25 13:52 | -35.77458 | -60.27815 | 38063 ft | 422 kts | 235° |
| 2026-04-25 13:53 | -35.81108 | -60.33425 | 38070 ft | 422 kts | 235° |
| 2026-04-25 13:53 | -35.84773 | -60.39068 | 38074 ft | 422 kts | 235° |
| 2026-04-25 13:54 | -35.88426 | -60.44701 | 38074 ft | 422 kts | 235° |
| 2026-04-25 13:54 | -35.92078 | -60.50343 | 38074 ft | 422 kts | 235° |
| 2026-04-25 13:55 | -35.95746 | -60.56018 | 38074 ft | 422 kts | 235° |
| 2026-04-25 13:55 | -35.99385 | -60.61657 | 38074 ft | 422 kts | 235° |
| 2026-04-25 13:56 | -36.03041 | -60.67331 | 38074 ft | 422 kts | 236° |
| 2026-04-25 13:56 | -36.06685 | -60.72996 | 38074 ft | 422 kts | 236° |
| 2026-04-25 13:57 | -36.10357 | -60.78715 | 38074 ft | 422 kts | 236° |
| 2026-04-25 13:57 | -36.13978 | -60.84364 | 38074 ft | 422 kts | 236° |
| 2026-04-25 13:58 | -36.17611 | -60.90041 | 38074 ft | 422 kts | 236° |
| 2026-04-25 13:58 | -36.21261 | -60.95754 | 38074 ft | 422 kts | 236° |
| 2026-04-25 13:59 | -36.24823 | -61.01339 | 38074 ft | 422 kts | 236° |
| 2026-04-25 13:59 | -36.28465 | -61.07058 | 38074 ft | 422 kts | 236° |
| 2026-04-25 14:00 | -36.32080 | -61.12744 | 38074 ft | 422 kts | 235° |
| 2026-04-25 14:00 | -36.35690 | -61.18432 | 38074 ft | 421 kts | 235° |
| 2026-04-25 14:01 | -36.39212 | -61.24209 | 38074 ft | 420 kts | 239° |
| 2026-04-25 14:01 | -36.42464 | -61.30248 | 38074 ft | 420 kts | 239° |
| 2026-04-25 14:02 | -36.45754 | -61.36219 | 38074 ft | 420 kts | 239° |
| 2026-04-25 14:02 | -36.49053 | -61.42227 | 38045 ft | 420 kts | 239° |
| 2026-04-25 14:03 | -36.52320 | -61.48177 | 38047 ft | 418 kts | 239° |
| 2026-04-25 14:03 | -36.55600 | -61.54155 | 38047 ft | 419 kts | 239° |
| 2026-04-25 14:04 | -36.58882 | -61.60148 | 38047 ft | 419 kts | 239° |
| 2026-04-25 14:04 | -36.62161 | -61.66143 | 38047 ft | 419 kts | 239° |
| 2026-04-25 14:05 | -36.65442 | -61.72154 | 38047 ft | 419 kts | 239° |
| 2026-04-25 14:05 | -36.68695 | -61.78123 | 38047 ft | 419 kts | 239° |
| 2026-04-25 14:06 | -36.71993 | -61.84184 | 38047 ft | 419 kts | 239° |
| 2026-04-25 14:06 | -36.75229 | -61.90145 | 38047 ft | 419 kts | 239° |
| 2026-04-25 14:07 | -36.78489 | -61.96158 | 38047 ft | 419 kts | 239° |
| 2026-04-25 14:07 | -36.81742 | -62.02169 | 38047 ft | 419 kts | 239° |
| 2026-04-25 14:08 | -36.85005 | -62.08210 | 38047 ft | 419 kts | 239° |
| 2026-04-25 14:08 | -36.88263 | -62.14251 | 38047 ft | 419 kts | 239° |
| 2026-04-25 14:09 | -36.91506 | -62.20277 | 38062 ft | 419 kts | 239° |
| 2026-04-25 14:09 | -36.94745 | -62.26306 | 38089 ft | 419 kts | 239° |
| 2026-04-25 14:10 | -36.97989 | -62.32354 | 38116 ft | 420 kts | 239° |
| 2026-04-25 14:10 | -37.01231 | -62.38411 | 38144 ft | 422 kts | 239° |
| 2026-04-25 14:11 | -37.04503 | -62.44535 | 38155 ft | 424 kts | 238° |
| 2026-04-25 14:11 | -37.07789 | -62.50693 | 38155 ft | 426 kts | 238° |
| 2026-04-25 14:12 | -37.11033 | -62.56787 | 38155 ft | 428 kts | 238° |
| 2026-04-25 14:12 | -37.14335 | -62.62998 | 38155 ft | 430 kts | 237° |
| 2026-04-25 14:13 | -37.17527 | -62.69014 | 38155 ft | 430 kts | 238° |
| 2026-04-25 14:13 | -37.20832 | -62.75255 | 38155 ft | 429 kts | 238° |
| 2026-04-25 14:14 | -37.24075 | -62.81391 | 38155 ft | 429 kts | 238° |
| 2026-04-25 14:14 | -37.27370 | -62.87635 | 38155 ft | 429 kts | 238° |
| 2026-04-25 14:15 | -37.30657 | -62.93877 | 38155 ft | 428 kts | 237° |
| 2026-04-25 14:15 | -37.33919 | -63.00084 | 38155 ft | 426 kts | 237° |
| 2026-04-25 14:16 | -37.37181 | -63.06289 | 38155 ft | 427 kts | 236° |
| 2026-04-25 14:16 | -37.40458 | -63.12518 | 38155 ft | 429 kts | 236° |
| 2026-04-25 14:17 | -37.43743 | -63.18779 | 38155 ft | 430 kts | 236° |
| 2026-04-25 14:17 | -37.47038 | -63.25072 | 38134 ft | 430 kts | 236° |
| 2026-04-25 14:18 | -37.50323 | -63.31358 | 38123 ft | 429 kts | 236° |
| 2026-04-25 14:18 | -37.53592 | -63.37623 | 38128 ft | 429 kts | 236° |
| 2026-04-25 14:19 | -37.56865 | -63.43910 | 38128 ft | 430 kts | 236° |
| 2026-04-25 14:19 | -37.60140 | -63.50212 | 38128 ft | 430 kts | 236° |
| 2026-04-25 14:20 | -37.63406 | -63.56508 | 38128 ft | 429 kts | 236° |
| 2026-04-25 14:20 | -37.66666 | -63.62806 | 38128 ft | 429 kts | 236° |
| 2026-04-25 14:21 | -37.69941 | -63.69143 | 38128 ft | 429 kts | 236° |
| 2026-04-25 14:21 | -37.73201 | -63.75462 | 38128 ft | 430 kts | 236° |
| 2026-04-25 14:22 | -37.76445 | -63.81765 | 38128 ft | 429 kts | 236° |
| 2026-04-25 14:22 | -37.79688 | -63.88076 | 38128 ft | 429 kts | 236° |
| 2026-04-25 14:23 | -37.82943 | -63.94426 | 38128 ft | 429 kts | 236° |
| 2026-04-25 14:23 | -37.86117 | -64.00626 | 38128 ft | 429 kts | 236° |
| 2026-04-25 14:24 | -37.89361 | -64.06976 | 38128 ft | 429 kts | 236° |
| 2026-04-25 14:24 | -37.92583 | -64.13296 | 38128 ft | 429 kts | 236° |
| 2026-04-25 14:25 | -37.95819 | -64.19655 | 38128 ft | 429 kts | 236° |
| 2026-04-25 14:25 | -37.99021 | -64.25960 | 38128 ft | 429 kts | 236° |
| 2026-04-25 14:26 | -38.02261 | -64.32353 | 38128 ft | 429 kts | 236° |
| 2026-04-25 14:26 | -38.05443 | -64.38641 | 38128 ft | 429 kts | 236° |
| 2026-04-25 14:27 | -38.08679 | -64.45051 | 38128 ft | 429 kts | 236° |
| 2026-04-25 14:27 | -38.11893 | -64.51432 | 38128 ft | 429 kts | 236° |
| 2026-04-25 14:28 | -38.15089 | -64.57803 | 38128 ft | 429 kts | 236° |
| 2026-04-25 14:28 | -38.18299 | -64.64214 | 38128 ft | 429 kts | 236° |
| 2026-04-25 14:29 | -38.21478 | -64.70574 | 38128 ft | 429 kts | 237° |
| 2026-04-25 14:29 | -38.24667 | -64.76968 | 38128 ft | 429 kts | 237° |
| 2026-04-25 14:30 | -38.27863 | -64.83389 | 38128 ft | 428 kts | 237° |
| 2026-04-25 14:30 | -38.32572 | -64.92873 | 38128 ft | 419 kts | 236° |
| 2026-04-25 14:31 | -38.35668 | -64.99121 | 38128 ft | 416 kts | 234° |
| 2026-04-25 14:31 | -38.38741 | -65.05336 | 38128 ft | 415 kts | 234° |
| 2026-04-25 14:32 | -38.41822 | -65.11578 | 38128 ft | 416 kts | 234° |
| 2026-04-25 14:32 | -38.44891 | -65.17808 | 38128 ft | 417 kts | 234° |
| 2026-04-25 14:33 | -38.47966 | -65.24062 | 38128 ft | 417 kts | 234° |
| 2026-04-25 14:33 | -38.51049 | -65.30345 | 38128 ft | 417 kts | 234° |
| 2026-04-25 14:34 | -38.54120 | -65.36616 | 38128 ft | 417 kts | 234° |
| 2026-04-25 14:34 | -38.57173 | -65.42863 | 38128 ft | 417 kts | 234° |
| 2026-04-25 14:35 | -38.60249 | -65.49168 | 38128 ft | 417 kts | 234° |
| 2026-04-25 14:35 | -38.63308 | -65.55450 | 38134 ft | 417 kts | 234° |
| 2026-04-25 14:36 | -38.66348 | -65.61706 | 38148 ft | 416 kts | 234° |
| 2026-04-25 14:36 | -38.69409 | -65.68019 | 38162 ft | 417 kts | 234° |
| 2026-04-25 14:37 | -38.72464 | -65.74330 | 38176 ft | 417 kts | 234° |
| 2026-04-25 14:37 | -38.75501 | -65.80617 | 38182 ft | 417 kts | 234° |
| 2026-04-25 14:38 | -38.78558 | -65.86958 | 38182 ft | 417 kts | 234° |
| 2026-04-25 14:38 | -38.81598 | -65.93275 | 38182 ft | 417 kts | 234° |
| 2026-04-25 14:39 | -38.84616 | -65.99560 | 38182 ft | 417 kts | 234° |
| 2026-04-25 14:39 | -38.87659 | -66.05907 | 38182 ft | 417 kts | 234° |
| 2026-04-25 14:40 | -38.90678 | -66.12220 | 38182 ft | 417 kts | 234° |
| 2026-04-25 14:40 | -38.93684 | -66.18532 | 38182 ft | 417 kts | 233° |
| 2026-04-25 14:41 | -38.96705 | -66.24895 | 38182 ft | 418 kts | 233° |
| 2026-04-25 14:41 | -38.99728 | -66.31273 | 38182 ft | 419 kts | 233° |
| 2026-04-25 14:42 | -39.01751 | -66.35548 | 38182 ft | 420 kts | 232° |
| 2026-04-25 14:42 | -39.05817 | -66.44160 | 38182 ft | 423 kts | 232° |
| 2026-04-25 14:43 | -39.08845 | -66.50588 | 38182 ft | 422 kts | 232° |
| 2026-04-25 14:43 | -39.11886 | -66.57057 | 38182 ft | 422 kts | 232° |
| 2026-04-25 14:44 | -39.14912 | -66.63506 | 38182 ft | 422 kts | 232° |
| 2026-04-25 14:44 | -39.17932 | -66.69955 | 38182 ft | 422 kts | 233° |
| 2026-04-25 14:45 | -39.20971 | -66.76459 | 38182 ft | 422 kts | 233° |
| 2026-04-25 14:45 | -39.23997 | -66.82948 | 38182 ft | 422 kts | 233° |
| 2026-04-25 14:46 | -39.27004 | -66.89412 | 38182 ft | 422 kts | 233° |
| 2026-04-25 14:46 | -39.30020 | -66.95904 | 38182 ft | 422 kts | 233° |
| 2026-04-25 14:47 | -39.32016 | -67.00211 | 38182 ft | 420 kts | 233° |
| 2026-04-25 14:47 | -39.35951 | -67.08723 | 38182 ft | 412 kts | 232° |
| 2026-04-25 14:48 | -39.38867 | -67.15041 | 38182 ft | 407 kts | 233° |
| 2026-04-25 14:48 | -39.41750 | -67.21297 | 38182 ft | 402 kts | 233° |
| 2026-04-25 14:49 | -39.44589 | -67.27470 | 38182 ft | 401 kts | 233° |
| 2026-04-25 14:49 | -39.47439 | -67.33677 | 38182 ft | 403 kts | 233° |
| 2026-04-25 14:50 | -39.50283 | -67.39888 | 38182 ft | 403 kts | 233° |
| 2026-04-25 14:50 | -39.53125 | -67.46105 | 38182 ft | 402 kts | 233° |
| 2026-04-25 14:51 | -39.55973 | -67.52349 | 38182 ft | 402 kts | 233° |
| 2026-04-25 14:51 | -39.58826 | -67.58615 | 38182 ft | 402 kts | 233° |
| 2026-04-25 14:52 | -39.61654 | -67.64840 | 38182 ft | 402 kts | 233° |
| 2026-04-25 14:52 | -39.64021 | -67.70060 | 38182 ft | 403 kts | 233° |
| 2026-04-25 14:53 | -39.67318 | -67.77343 | 38182 ft | 403 kts | 233° |
| 2026-04-25 14:53 | -39.70146 | -67.83606 | 38182 ft | 402 kts | 233° |
| 2026-04-25 14:54 | -39.72960 | -67.89849 | 38182 ft | 402 kts | 233° |
| 2026-04-25 14:54 | -39.75779 | -67.96117 | 38182 ft | 402 kts | 233° |
| 2026-04-25 14:55 | -39.78594 | -68.02387 | 38182 ft | 402 kts | 233° |
| 2026-04-25 14:55 | -39.81400 | -68.08622 | 38182 ft | 401 kts | 232° |
| 2026-04-25 14:56 | -39.84483 | -68.14657 | 38182 ft | 399 kts | 230° |
| 2026-04-25 14:56 | -39.87553 | -68.20652 | 38182 ft | 399 kts | 231° |
| 2026-04-25 14:57 | -39.90601 | -68.26656 | 38182 ft | 399 kts | 230° |
| 2026-04-25 14:57 | -39.93657 | -68.32681 | 38182 ft | 399 kts | 230° |
| 2026-04-25 14:58 | -39.96704 | -68.38709 | 38182 ft | 399 kts | 230° |
| 2026-04-25 14:58 | -39.99751 | -68.44750 | 38182 ft | 399 kts | 231° |
| 2026-04-25 14:59 | -40.02776 | -68.50758 | 38182 ft | 399 kts | 231° |
| 2026-04-25 14:59 | -40.05825 | -68.56828 | 38182 ft | 399 kts | 231° |
| 2026-04-25 15:00 | -40.08813 | -68.62787 | 38182 ft | 399 kts | 231° |
| 2026-04-25 15:00 | -40.11867 | -68.68889 | 38182 ft | 400 kts | 231° |
| 2026-04-25 15:01 | -40.14884 | -68.74928 | 38182 ft | 400 kts | 231° |
| 2026-04-25 15:01 | -40.17918 | -68.81014 | 38182 ft | 399 kts | 231° |
| 2026-04-25 15:02 | -40.20946 | -68.87099 | 38182 ft | 399 kts | 231° |
| 2026-04-25 15:02 | -40.23961 | -68.93171 | 38175 ft | 399 kts | 231° |
| 2026-04-25 15:03 | -40.26973 | -68.99246 | 38155 ft | 400 kts | 232° |
| 2026-04-25 15:03 | -40.29985 | -69.05335 | 38155 ft | 399 kts | 233° |
| 2026-04-25 15:04 | -40.33001 | -69.11443 | 38155 ft | 400 kts | 233° |
| 2026-04-25 15:04 | -40.35866 | -69.17258 | 37572 ft | 397 kts | 233° |
| 2026-04-25 15:05 | -40.37349 | -69.20272 | 36953 ft | 397 kts | 233° |
| 2026-04-25 15:05 | -40.38851 | -69.23325 | 36279 ft | 397 kts | 233° |
| 2026-04-25 15:05 | -40.40335 | -69.26343 | 35565 ft | 399 kts | 233° |
| 2026-04-25 15:06 | -40.43333 | -69.32452 | 34147 ft | 400 kts | 233° |
| 2026-04-25 15:06 | -40.44828 | -69.35506 | 33621 ft | 398 kts | 233° |
| 2026-04-25 15:06 | -40.46326 | -69.38566 | 33072 ft | 403 kts | 233° |
| 2026-04-25 15:06 | -40.47841 | -69.41660 | 32528 ft | 404 kts | 233° |
| 2026-04-25 15:07 | -40.49356 | -69.44768 | 31998 ft | 400 kts | 232° |
| 2026-04-25 15:07 | -40.50845 | -69.47822 | 31475 ft | 399 kts | 232° |
| 2026-04-25 15:07 | -40.52349 | -69.50906 | 30948 ft | 402 kts | 232° |
| 2026-04-25 15:07 | -40.53857 | -69.53996 | 30257 ft | 408 kts | 232° |
| 2026-04-25 15:08 | -40.55390 | -69.57144 | 29460 ft | 408 kts | 232° |
| 2026-04-25 15:08 | -40.56904 | -69.60265 | 28822 ft | 407 kts | 232° |
| 2026-04-25 15:08 | -40.58421 | -69.63390 | 28121 ft | 408 kts | 232° |
| 2026-04-25 15:08 | -40.59972 | -69.66587 | 27405 ft | 410 kts | 232° |
| 2026-04-25 15:09 | -40.61485 | -69.69708 | 26594 ft | 412 kts | 233° |
| 2026-04-25 15:09 | -40.63041 | -69.72920 | 25764 ft | 417 kts | 233° |
| 2026-04-25 15:09 | -40.66123 | -69.79304 | 24224 ft | 409 kts | 233° |
| 2026-04-25 15:10 | -40.67643 | -69.82457 | 23724 ft | 400 kts | 234° |
| 2026-04-25 15:10 | -40.69114 | -69.85514 | 23484 ft | 389 kts | 234° |
| 2026-04-25 15:10 | -40.71951 | -69.91408 | 22726 ft | 380 kts | 234° |
| 2026-04-25 15:11 | -40.73375 | -69.94364 | 22170 ft | 380 kts | 234° |
| 2026-04-25 15:11 | -40.74773 | -69.97274 | 21610 ft | 381 kts | 234° |
| 2026-04-25 15:11 | -40.76196 | -70.00239 | 21037 ft | 382 kts | 235° |
| 2026-04-25 15:12 | -40.79027 | -70.06146 | 19882 ft | 380 kts | 236° |
| 2026-04-25 15:12 | -40.80410 | -70.09040 | 19328 ft | 368 kts | 236° |
| 2026-04-25 15:12 | -40.81769 | -70.11883 | 18791 ft | 369 kts | 236° |
| 2026-04-25 15:12 | -40.82239 | -70.12867 | 18606 ft | 369 kts | 236° |
| 2026-04-25 15:13 | -40.84499 | -70.17600 | 17711 ft | 369 kts | 237° |
| 2026-04-25 15:13 | -40.87163 | -70.23194 | 16657 ft | 348 kts | 237° |
| 2026-04-25 15:13 | -40.88447 | -70.25892 | 16150 ft | 348 kts | 237° |
| 2026-04-25 15:14 | -40.89741 | -70.28612 | 15637 ft | 349 kts | 237° |
| 2026-04-25 15:14 | -40.91021 | -70.31308 | 15118 ft | 343 kts | 238° |
| 2026-04-25 15:14 | -40.92270 | -70.33940 | 14629 ft | 337 kts | 238° |
| 2026-04-25 15:14 | -40.93522 | -70.36581 | 14115 ft | 336 kts | 238° |
| 2026-04-25 15:15 | -40.94760 | -70.39194 | 13607 ft | 334 kts | 238° |
| 2026-04-25 15:15 | -40.95953 | -70.41714 | 13113 ft | 333 kts | 238° |
| 2026-04-25 15:15 | -40.97165 | -70.44260 | 12615 ft | 319 kts | 237° |
| 2026-04-25 15:15 | -40.98477 | -70.46589 | 12148 ft | 314 kts | 231° |
| 2026-04-25 15:16 | -40.99880 | -70.48795 | 11673 ft | 314 kts | 230° |
| 2026-04-25 15:16 | -41.01274 | -70.51035 | 11197 ft | 315 kts | 231° |
| 2026-04-25 15:16 | -41.03992 | -70.55439 | 10504 ft | 293 kts | 231° |
| 2026-04-25 15:17 | -41.06456 | -70.59434 | 10000 ft | 276 kts | 231° |
| 2026-04-25 15:17 | -41.07658 | -70.61386 | 9644 ft | 272 kts | 231° |
| 2026-04-25 15:17 | -41.08841 | -70.63309 | 9444 ft | 264 kts | 231° |
| 2026-04-25 15:18 | -41.09988 | -70.65168 | 9226 ft | 261 kts | 233° |
| 2026-04-25 15:18 | -41.12275 | -70.68893 | 8582 ft | 260 kts | 233° |
| 2026-04-25 15:18 | -41.13425 | -70.70767 | 8230 ft | 259 kts | 233° |
| 2026-04-25 15:19 | -41.14563 | -70.72623 | 7880 ft | 259 kts | 233° |
| 2026-04-25 15:19 | -41.14933 | -70.73226 | 7748 ft | 256 kts | 233° |
| 2026-04-25 15:19 | -41.16690 | -70.76088 | 7523 ft | 227 kts | 234° |
| 2026-04-25 15:19 | -41.17666 | -70.77684 | 7440 ft | 222 kts | 234° |
| 2026-04-25 15:20 | -41.18644 | -70.79283 | 7351 ft | 221 kts | 234° |
| 2026-04-25 15:20 | -41.19599 | -70.80843 | 7207 ft | 214 kts | 234° |
| 2026-04-25 15:20 | -41.20519 | -70.82347 | 7071 ft | 208 kts | 234° |
| 2026-04-25 15:20 | -41.21431 | -70.83841 | 6935 ft | 208 kts | 234° |
| 2026-04-25 15:21 | -41.22340 | -70.85329 | 6800 ft | 207 kts | 234° |
| 2026-04-25 15:21 | -41.23245 | -70.86811 | 6665 ft | 207 kts | 234° |
| 2026-04-25 15:21 | -41.24026 | -70.88399 | 6521 ft | 202 kts | 256° |
| 2026-04-25 15:21 | -41.23978 | -70.90174 | 6413 ft | 190 kts | 291° |
| 2026-04-25 15:22 | -41.23406 | -70.91707 | 6280 ft | 179 kts | 293° |
| 2026-04-25 15:22 | -41.22939 | -70.93163 | 6168 ft | 166 kts | 292° |
| 2026-04-25 15:22 | -41.22467 | -70.94560 | 5931 ft | 167 kts | 293° |
| 2026-04-25 15:22 | -41.21992 | -70.95946 | 5701 ft | 162 kts | 293° |
| 2026-04-25 15:23 | -41.21521 | -70.97314 | 5485 ft | 162 kts | 293° |
| 2026-04-25 15:23 | -41.21056 | -70.98656 | 5267 ft | 158 kts | 293° |
| 2026-04-25 15:23 | -41.20599 | -70.99977 | 5066 ft | 160 kts | 294° |
| 2026-04-25 15:23 | -41.20135 | -71.01318 | 4850 ft | 159 kts | 294° |
| 2026-04-25 15:24 | -41.19683 | -71.02622 | 4650 ft | 153 kts | 294° |
| 2026-04-25 15:24 | -41.19250 | -71.03872 | 4448 ft | 145 kts | 294° |
| 2026-04-25 15:24 | -41.18829 | -71.05088 | 4261 ft | 140 kts | 294° |
| 2026-04-25 15:24 | -41.18693 | -71.05479 | 4188 ft | 136 kts | 294° |
| 2026-04-25 15:25 | -41.18084 | -71.07233 | 3914 ft | 120 kts | 294° |
| 2026-04-25 15:25 | -41.17728 | -71.08255 | 3747 ft | 120 kts | 294° |
| 2026-04-25 15:25 | -41.17381 | -71.09255 | 3593 ft | 119 kts | 295° |
| 2026-04-25 15:25 | -41.17045 | -71.10217 | 3442 ft | 119 kts | 295° |
| 2026-04-25 15:26 | -41.16697 | -71.11216 | 3284 ft | 118 kts | 295° |
| 2026-04-25 15:26 | -41.16353 | -71.12205 | 3143 ft | 117 kts | 295° |
| 2026-04-25 15:26 | -41.16014 | -71.13194 | 3017 ft | 118 kts | 295° |
| 2026-04-25 15:26 | -41.15666 | -71.14178 | 2875 ft | 117 kts | 295° |
| 2026-04-25 15:27 | -41.15334 | -71.15132 | 2784 ft | 99 kts | 296° |
| 2026-04-25 15:27 | -41.15136 | -71.15697 | 2784 ft | 50 kts | 295° |
| 2026-04-25 15:27 | -41.14957 | -71.16214 | 2784 ft | 18 kts | 296° |
| 2026-04-25 15:28 | -41.14917 | -71.16296 | 2784 ft | 7 kts | 334° |
| 2026-04-25 15:28 | -41.14877 | -71.16291 | 2784 ft | 3 kts | 20° |
| 2026-04-25 15:28 | -41.14861 | -71.16282 | 2784 ft | 1 kts | 25° |
| 2026-04-25 15:28 | -41.14854 | -71.16277 | 2784 ft | 0 kts | 24° |
| 2026-04-25 15:29 | -41.14851 | -71.16277 | 2784 ft | 1 kts | 25° |
| 2026-04-25 15:29 | -41.14840 | -71.16269 | 2784 ft | 1 kts | 25° |
| 2026-04-25 15:29 | -41.14832 | -71.16264 | 2784 ft | 0 kts | 25° |
| 2026-04-25 15:29 | -41.14818 | -71.16255 | 2784 ft | 3 kts | 26° |
| 2026-04-25 15:30 | -41.14789 | -71.16236 | 2784 ft | 4 kts | 31° |
| 2026-04-25 15:30 | -41.14766 | -71.16211 | 2784 ft | 4 kts | 31° |
| 2026-04-25 15:30 | -41.14741 | -71.16198 | 2784 ft | 3 kts | 14° |
| 2026-04-25 15:30 | -41.14716 | -71.16200 | 2784 ft | 4 kts | 346° |
| 2026-04-25 15:31 | -41.14693 | -71.16206 | 2784 ft | 2 kts | 349° |
| 2026-04-25 15:31 | -41.14680 | -71.16209 | 2784 ft | 1 kts | 348° |
| 2026-04-25 15:31 | -41.14670 | -71.16212 | 2784 ft | 2 kts | 359° |
| 2026-04-25 15:31 | -41.14658 | -71.16205 | 2784 ft | 1 kts | 33° |
| 2026-04-25 15:32 | -41.14655 | -71.16200 | 2784 ft | 0 kts | 51° |
| 2026-04-25 15:32 | -41.14653 | -71.16196 | 2784 ft | 0 kts | 67° |